Darstellungsparameter: Aktuell verwendete Einstellungen:
Skalierung der Graphiken ... ?
xyx+y,   Skalierungsfaktor:      Skalierung: Modus: x, Faktor: 1
Darstellungszeitraum ... ?
Vom - - bis: - -   Zeitraum: 03.06.2004 - 09.06.2004
Min/Max/Avg-Anzeige ... ?
Zeige MMA aktuell
Zeige MMA Monat
Zeige MMA alles
Zeige --A aktuell
Zeige --A Monat
Zeige --A alles
Keine MMA-Anzeige
MMA:
Keine MMA-Graphiken
MMA-Basis: 03.06.2004 - 09.06.2004
Quicknavigation für Darstellung... ?
Tage:      1T, 2T, 3T, 5T -1T -2T -3T -5T +1T +2T +3T +5T
Wochen: 1W, 2W, 3W -1W -2W -3W +1W +2W +3W
Monate: 1M, 3M, 6M -1M -3M -6M +1M +3M +6M
Jahre:    1J, 3J, 5J, 10J -1J -3J -5J -10J +1J +3J +5J +10J
Nutze für die Darstellung ... ?
Originaldaten oder Mittelwerte auf ...
Stundenbasis Tagesbasis Wochenbasis
Monatsbasis Jahresbasis      Datenbasis: Original-Daten
Darstellen als:
Statistik (Auto) Statistik J:M      Darstellung:
Zur Graphik,    zurück zur Übersicht aller Sensoren.
 
Tabellarische Datenbersicht: ?
 
Sensor: Nr:Datum:Temp:Abs-Feuchte:Windchill:Wind:
Aussen-T/F 1 03-06-2004 00:00:01 12.9 C 10.37 g/m*3 12.9 C 0 km/h
2 03-06-2004 00:12:01 12.8 C 10.3 g/m*3 12.8 C 0 km/h
3 03-06-2004 00:24:01 12.7 C 10.35 g/m*3 12.7 C 0 km/h
4 03-06-2004 00:36:00 12.7 C 10.35 g/m*3 12.7 C 0 km/h
5 03-06-2004 00:48:01 12.6 C 10.29 g/m*3 12.6 C 0 km/h
6 03-06-2004 01:00:01 12.8 C 10.53 g/m*3 12.8 C 0 km/h
7 03-06-2004 01:12:01 12.7 C 10.46 g/m*3 12.7 C 0 km/h
8 03-06-2004 01:24:02 12.8 C 10.53 g/m*3 12.8 C 0 km/h
9 03-06-2004 01:36:02 12.8 C 10.53 g/m*3 12.8 C 0 km/h
10 03-06-2004 01:48:02 13 C 10.55 g/m*3 13 C 0 km/h
11 03-06-2004 02:00:02 12.9 C 10.48 g/m*3 12.9 C 0 km/h
12 03-06-2004 02:12:02 12.9 C 10.48 g/m*3 12.9 C 0 km/h
13 03-06-2004 02:24:02 12.9 C 10.48 g/m*3 12.9 C 0 km/h
14 03-06-2004 02:36:02 12.8 C 10.3 g/m*3 12.8 C 0 km/h
15 03-06-2004 02:49:03 12.8 C 10.3 g/m*3 12.8 C 0 km/h
16 03-06-2004 03:01:03 12.8 C 10.3 g/m*3 12.8 C 0 km/h
17 03-06-2004 03:13:03 12.9 C 10.37 g/m*3 12.9 C 0 km/h
18 03-06-2004 03:25:03 12.9 C 10.48 g/m*3 12.9 C 0 km/h
19 03-06-2004 03:37:01 12.9 C 10.48 g/m*3 12.9 C 0 km/h
20 03-06-2004 03:49:01 12.9 C 10.48 g/m*3 12.9 C 0 km/h
21 03-06-2004 04:01:01 12.9 C 10.48 g/m*3 12.9 C 0 km/h
22 03-06-2004 04:13:01 12.9 C 10.37 g/m*3 12.9 C 0 km/h
23 03-06-2004 04:25:01 13 C 10.43 g/m*3 13 C 0 km/h
24 03-06-2004 04:37:01 13 C 10.43 g/m*3 13 C 0 km/h
25 03-06-2004 04:49:01 13 C 10.43 g/m*3 13 C 0 km/h
Sensor: Nr:Datum:Temp:Abs-Feuchte:Windchill:Wind:
Aussen-T/F 26 03-06-2004 05:01:01 13 C 10.43 g/m*3 13 C 0 km/h
27 03-06-2004 05:13:01 13 C 10.43 g/m*3 13 C 0 km/h
28 03-06-2004 05:25:01 13.2 C 10.56 g/m*3 13.2 C 0 km/h
29 03-06-2004 05:37:01 13.2 C 10.45 g/m*3 13.2 C 0 km/h
30 03-06-2004 05:49:01 13.2 C 10.33 g/m*3 13.2 C 0 km/h
31 03-06-2004 06:01:01 13.2 C 10.33 g/m*3 13.2 C 0 km/h
32 03-06-2004 06:13:01 13.2 C 10.33 g/m*3 13.2 C 0 km/h
33 03-06-2004 06:25:00 13.1 C 10.27 g/m*3 13.1 C 0 km/h
34 03-06-2004 06:37:00 13.1 C 10.27 g/m*3 13.1 C 0 km/h
35 03-06-2004 06:49:01 13.1 C 10.38 g/m*3 13.1 C 0 km/h
36 03-06-2004 07:01:02 13.2 C 10.45 g/m*3 13.2 C 0 km/h
37 03-06-2004 07:13:02 13.2 C 10.33 g/m*3 13.2 C 0 km/h
38 03-06-2004 07:25:01 13.3 C 10.4 g/m*3 13.3 C 0 km/h
39 03-06-2004 07:37:01 13.4 C 10.46 g/m*3 13.4 C 0 km/h
40 03-06-2004 07:49:01 13.4 C 10.35 g/m*3 13.4 C 0 km/h
41 03-06-2004 08:01:01 13.6 C 10.36 g/m*3 13.6 C 0 km/h
42 03-06-2004 08:13:01 13.7 C 10.3 g/m*3 13.7 C 0 km/h
43 03-06-2004 08:25:01 13.6 C 10.24 g/m*3 13.6 C 0 km/h
44 03-06-2004 08:37:00 13.7 C 10.3 g/m*3 13.7 C 0 km/h
45 03-06-2004 08:49:01 13.9 C 10.19 g/m*3 13.9 C 0 km/h
46 03-06-2004 09:01:01 14.2 C 10.14 g/m*3 14.2 C 0 km/h
47 03-06-2004 09:13:01 14.7 C 10.32 g/m*3 14.7 C 0 km/h
48 03-06-2004 09:25:01 14.4 C 9.77 g/m*3 14.4 C 0 km/h
49 03-06-2004 09:37:01 14.6 C 10.01 g/m*3 14.6 C 0 km/h
50 03-06-2004 09:49:01 14.9 C 9.94 g/m*3 14.9 C 0 km/h
Sensor: Nr:Datum:Temp:Abs-Feuchte:Windchill:Wind:
Aussen-T/F 51 03-06-2004 10:01:01 14.9 C 10.07 g/m*3 14.9 C 0 km/h
52 03-06-2004 10:13:01 14.8 C 9.88 g/m*3 14.8 C 0 km/h
53 03-06-2004 10:25:01 15.4 C 9.85 g/m*3 15.4 C 0 km/h
54 03-06-2004 10:37:01 16 C 9.81 g/m*3 16 C 0 km/h
55 03-06-2004 10:49:01 15.7 C 9.77 g/m*3 15.7 C 0 km/h
56 03-06-2004 11:01:01 15.6 C 9.71 g/m*3 15.6 C 0 km/h
57 03-06-2004 11:13:01 15.6 C 9.71 g/m*3 15.6 C 0 km/h
58 03-06-2004 11:25:01 16 C 9.81 g/m*3 16 C 0 km/h
59 03-06-2004 11:37:01 16.3 C 9.71 g/m*3 16.3 C 0 km/h
60 03-06-2004 11:49:01 16.5 C 9.41 g/m*3 16.5 C 0 km/h
61 03-06-2004 12:01:01 16.1 C 9.32 g/m*3 16.1 C 0 km/h
62 03-06-2004 12:13:01 16 C 9.4 g/m*3 16 C 0 km/h
63 03-06-2004 12:25:01 16.2 C 9.38 g/m*3 16.2 C 0 km/h
64 03-06-2004 12:37:01 16.8 C 9.72 g/m*3 16.8 C 0 km/h
65 03-06-2004 12:49:01 17.3 C 9.72 g/m*3 17.3 C 0 km/h
66 03-06-2004 13:01:01 18.5 C 9.65 g/m*3 18.5 C 0 km/h
67 03-06-2004 13:13:01 18.5 C 9.18 g/m*3 18.5 C 0 km/h
68 03-06-2004 13:25:01 17.9 C 9.31 g/m*3 17.9 C 0 km/h
69 03-06-2004 13:37:01 18.7 C 9.45 g/m*3 18.7 C 0 km/h
70 03-06-2004 13:49:01 19 C 9.45 g/m*3 19 C 0 km/h
71 03-06-2004 14:01:02 18.8 C 9.66 g/m*3 18.8 C 0 km/h
72 03-06-2004 14:13:02 18.3 C 9.38 g/m*3 18.3 C 0 km/h
73 03-06-2004 14:25:01 18.1 C 9.27 g/m*3 18.1 C 0 km/h
74 03-06-2004 14:37:02 18.7 C 9.29 g/m*3 18.7 C 0 km/h
75 03-06-2004 14:49:02 20.8 C 9.78 g/m*3 20.8 C 0 km/h
Sensor: Nr:Datum:Temp:Abs-Feuchte:Windchill:Wind:
Aussen-T/F 76 03-06-2004 15:01:02 20.3 C 9.32 g/m*3 20.3 C 0 km/h
77 03-06-2004 15:13:02 20.6 C 9.31 g/m*3 20.6 C 0 km/h
78 03-06-2004 15:25:02 20.6 C 9.31 g/m*3 20.6 C 0 km/h
79 03-06-2004 15:37:02 20.4 C 9.38 g/m*3 20.4 C 0 km/h
80 03-06-2004 15:49:02 20.5 C 9.43 g/m*3 20.5 C 0 km/h
81 03-06-2004 16:01:02 21 C 9.34 g/m*3 21 C 0 km/h
82 03-06-2004 16:13:02 21.5 C 9.24 g/m*3 21.5 C 0 km/h
83 03-06-2004 16:25:02 22.2 C 9.42 g/m*3 22.2 C 0 km/h
84 03-06-2004 16:37:02 21.8 C 9.4 g/m*3 21.8 C 0 km/h
85 03-06-2004 16:49:01 21.9 C 9.46 g/m*3 21.9 C 0 km/h
86 03-06-2004 17:01:03 22.5 C 9.59 g/m*3 22.5 C 0 km/h
87 03-06-2004 17:13:03 21.6 C 9.48 g/m*3 21.6 C 0 km/h
88 03-06-2004 17:25:00 21.4 C 9.56 g/m*3 21.4 C 0 km/h
89 03-06-2004 17:37:00 22.4 C 10.13 g/m*3 22.4 C 0 km/h
90 03-06-2004 17:49:01 22.5 C 9.59 g/m*3 22.5 C 0 km/h
91 03-06-2004 18:01:01 21.9 C 9.26 g/m*3 21.9 C 0 km/h
92 03-06-2004 18:13:01 21.7 C 8.97 g/m*3 21.7 C 0 km/h
93 03-06-2004 18:25:01 21.2 C 9.27 g/m*3 21.2 C 0 km/h
94 03-06-2004 18:37:01 20.8 C 9.6 g/m*3 20.8 C 0 km/h
95 03-06-2004 18:49:01 21.8 C 9.21 g/m*3 21.8 C 0 km/h
96 03-06-2004 19:01:01 21.2 C 9.08 g/m*3 21.2 C 0 km/h
97 03-06-2004 19:13:01 20.8 C 9.6 g/m*3 20.8 C 0 km/h
98 03-06-2004 19:25:01 20.7 C 9.36 g/m*3 20.7 C 0 km/h
99 03-06-2004 19:37:01 20 C 9.16 g/m*3 20 C 0 km/h
100 03-06-2004 19:49:01 20.3 C 9.67 g/m*3 20.3 C 0 km/h
Sensor: Nr:Datum:Temp:Abs-Feuchte:Windchill:Wind:
Aussen-T/F 101 03-06-2004 20:01:01 20.9 C 9.83 g/m*3 20.9 C 0 km/h
102 03-06-2004 20:13:01 21.2 C 9.82 g/m*3 21.2 C 0 km/h
103 03-06-2004 20:25:01 20.8 C 9.78 g/m*3 20.8 C 0 km/h
104 03-06-2004 20:37:01 20.4 C 9.73 g/m*3 20.4 C 0 km/h
105 03-06-2004 20:49:01 19.7 C 9.51 g/m*3 19.7 C 0 km/h
106 03-06-2004 21:01:01 19.3 C 10.12 g/m*3 19.3 C 0 km/h
107 03-06-2004 21:13:01 18.7 C 10.25 g/m*3 18.7 C 0 km/h
108 03-06-2004 21:25:00 17.8 C 10.17 g/m*3 17.8 C 0 km/h
109 03-06-2004 21:37:00 17 C 9.98 g/m*3 17 C 0 km/h
110 03-06-2004 21:49:01 16.6 C 9.89 g/m*3 16.6 C 0 km/h
111 03-06-2004 22:01:01 16 C 9.81 g/m*3 16 C 0 km/h
112 03-06-2004 22:13:01 15.8 C 10.1 g/m*3 15.8 C 0 km/h
113 03-06-2004 22:25:01 15.4 C 9.99 g/m*3 15.4 C 0 km/h
114 03-06-2004 22:37:01 15.5 C 10.18 g/m*3 15.5 C 0 km/h
115 03-06-2004 22:49:01 15.4 C 10.12 g/m*3 15.4 C 0 km/h
116 03-06-2004 23:01:01 15 C 10 g/m*3 15 C 0 km/h
117 03-06-2004 23:13:01 14.9 C 10.2 g/m*3 14.9 C 0 km/h
118 03-06-2004 23:25:01 14.9 C 10.2 g/m*3 14.9 C 0 km/h
119 03-06-2004 23:37:01 14.9 C 10.32 g/m*3 14.9 C 0 km/h
120 03-06-2004 23:49:01 14.7 C 10.2 g/m*3 14.7 C 0 km/h
121 04-06-2004 00:01:01 14.4 C 10.14 g/m*3 14.4 C 0 km/h
122 04-06-2004 00:13:01 14.5 C 10.32 g/m*3 14.5 C 0 km/h
123 04-06-2004 00:25:01 14.4 C 10.38 g/m*3 14.4 C 0 km/h
124 04-06-2004 00:37:01 14.1 C 10.19 g/m*3 14.1 C 0 km/h
125 04-06-2004 00:49:01 14 C 10.13 g/m*3 14 C 0 km/h
Sensor: Nr:Datum:Temp:Abs-Feuchte:Windchill:Wind:
Aussen-T/F 126 04-06-2004 01:01:01 13.8 C 10.37 g/m*3 13.8 C 0 km/h
127 04-06-2004 01:13:01 13.4 C 10 g/m*3 13.4 C 0 km/h
128 04-06-2004 01:25:01 13.3 C 9.94 g/m*3 13.3 C 0 km/h
129 04-06-2004 01:37:01 13.2 C 9.99 g/m*3 13.2 C 0 km/h
130 04-06-2004 01:49:01 13.1 C 10.04 g/m*3 13.1 C 0 km/h
131 04-06-2004 02:01:01 13 C 9.98 g/m*3 13 C 0 km/h
132 04-06-2004 02:13:01 13 C 9.98 g/m*3 13 C 0 km/h
133 04-06-2004 02:25:01 12.8 C 9.86 g/m*3 12.8 C 0 km/h
134 04-06-2004 02:37:01 12.8 C 9.97 g/m*3 12.8 C 0 km/h
135 04-06-2004 02:50:03 12.8 C 9.97 g/m*3 12.8 C 0 km/h
136 04-06-2004 03:02:03 12.6 C 9.74 g/m*3 12.6 C 0 km/h
137 04-06-2004 03:14:03 12.5 C 9.68 g/m*3 12.5 C 0 km/h
138 04-06-2004 03:26:03 12.3 C 9.66 g/m*3 12.3 C 0 km/h
139 04-06-2004 03:38:01 12.1 C 9.54 g/m*3 12.1 C 0 km/h
140 04-06-2004 03:50:01 12 C 9.48 g/m*3 12 C 0 km/h
141 04-06-2004 04:02:01 11.8 C 9.37 g/m*3 11.8 C 0 km/h
142 04-06-2004 04:14:01 11.8 C 9.47 g/m*3 11.8 C 0 km/h
143 04-06-2004 04:26:01 11.7 C 9.41 g/m*3 11.7 C 0 km/h
144 04-06-2004 04:38:01 11.6 C 9.46 g/m*3 11.6 C 0 km/h
145 04-06-2004 04:50:01 11.5 C 9.5 g/m*3 11.5 C 0 km/h
146 04-06-2004 05:02:01 11.4 C 9.44 g/m*3 11.4 C 0 km/h
147 04-06-2004 05:14:01 11.3 C 9.38 g/m*3 11.3 C 0 km/h
148 04-06-2004 05:26:00 11.4 C 9.44 g/m*3 11.4 C 0 km/h
149 04-06-2004 05:38:00 11.4 C 9.44 g/m*3 11.4 C 0 km/h
150 04-06-2004 05:50:01 11.5 C 9.5 g/m*3 11.5 C 0 km/h
Sensor: Nr:Datum:Temp:Abs-Feuchte:Windchill:Wind:
Aussen-T/F 151 04-06-2004 06:02:01 11.5 C 9.5 g/m*3 11.5 C 0 km/h
152 04-06-2004 06:14:01 11.5 C 9.4 g/m*3 11.5 C 0 km/h
153 04-06-2004 06:26:00 11.7 C 9.52 g/m*3 11.7 C 0 km/h
154 04-06-2004 06:38:00 11.8 C 9.47 g/m*3 11.8 C 0 km/h
155 04-06-2004 06:50:01 11.9 C 9.53 g/m*3 11.9 C 0 km/h
156 04-06-2004 07:02:01 11.9 C 9.43 g/m*3 11.9 C 0 km/h
157 04-06-2004 07:14:01 12.1 C 9.44 g/m*3 12.1 C 0 km/h
158 04-06-2004 07:26:00 12.3 C 9.56 g/m*3 12.3 C 0 km/h
159 04-06-2004 07:38:00 12.4 C 9.51 g/m*3 12.4 C 0 km/h
160 04-06-2004 07:50:01 12.8 C 9.63 g/m*3 12.8 C 0 km/h
161 04-06-2004 08:02:01 12.9 C 9.58 g/m*3 12.9 C 0 km/h
162 04-06-2004 08:14:01 13.1 C 9.59 g/m*3 13.1 C 0 km/h
163 04-06-2004 08:26:00 13.1 C 9.59 g/m*3 13.1 C 0 km/h
164 04-06-2004 08:38:00 13.3 C 9.7 g/m*3 13.3 C 0 km/h
165 04-06-2004 08:50:01 13.4 C 9.76 g/m*3 13.4 C 0 km/h
166 04-06-2004 09:02:01 13.3 C 9.82 g/m*3 13.3 C 0 km/h
167 04-06-2004 09:14:01 13.2 C 9.99 g/m*3 13.2 C 0 km/h
168 04-06-2004 09:26:01 13.3 C 10.17 g/m*3 13.3 C 0 km/h
169 04-06-2004 09:38:00 13.2 C 10.1 g/m*3 13.2 C 0 km/h
170 04-06-2004 09:50:01 13.2 C 10.22 g/m*3 13.2 C 0 km/h
171 04-06-2004 10:02:01 13.2 C 10.33 g/m*3 13.2 C 0 km/h
172 04-06-2004 10:14:01 13.2 C 10.33 g/m*3 13.2 C 0 km/h
173 04-06-2004 10:26:01 13.6 C 10.59 g/m*3 13.6 C 0 km/h
174 04-06-2004 10:38:00 13.6 C 10.59 g/m*3 13.6 C 0 km/h
175 04-06-2004 10:50:01 13.8 C 10.6 g/m*3 13.8 C 0 km/h
Sensor: Nr:Datum:Temp:Abs-Feuchte:Windchill:Wind:
Aussen-T/F 176 04-06-2004 11:02:01 14.2 C 10.75 g/m*3 14.2 C 0 km/h
177 04-06-2004 11:14:01 14.3 C 10.81 g/m*3 14.3 C 0 km/h
178 04-06-2004 11:26:01 14.5 C 10.82 g/m*3 14.5 C 0 km/h
179 04-06-2004 11:38:01 14.4 C 10.88 g/m*3 14.4 C 0 km/h
180 04-06-2004 11:50:01 14.8 C 11.15 g/m*3 14.8 C 0 km/h
181 04-06-2004 12:02:01 14.4 C 10.88 g/m*3 14.4 C 0 km/h
182 04-06-2004 12:14:01 14.4 C 11 g/m*3 14.4 C 0 km/h
183 04-06-2004 12:26:01 14.8 C 11.4 g/m*3 14.8 C 0 km/h
184 04-06-2004 12:38:01 14.8 C 11.15 g/m*3 14.8 C 0 km/h
185 04-06-2004 12:50:01 15 C 10.64 g/m*3 15 C 0 km/h
186 04-06-2004 13:02:01 15.1 C 10.32 g/m*3 15.1 C 0 km/h
187 04-06-2004 13:14:01 15.1 C 10.19 g/m*3 15.1 C 0 km/h
188 04-06-2004 13:26:01 15.1 C 9.68 g/m*3 15.1 C 0 km/h
189 04-06-2004 13:38:01 14.8 C 9.75 g/m*3 14.8 C 0 km/h
190 04-06-2004 13:50:01 14.6 C 10.14 g/m*3 14.6 C 0 km/h
191 04-06-2004 14:02:01 14.3 C 9.83 g/m*3 14.3 C 0 km/h
192 04-06-2004 14:14:01 14.4 C 10.01 g/m*3 14.4 C 0 km/h
193 04-06-2004 14:26:01 14.4 C 9.77 g/m*3 14.4 C 0 km/h
194 04-06-2004 14:38:01 14.2 C 9.89 g/m*3 14.2 C 0 km/h
195 04-06-2004 14:50:01 13.8 C 10.13 g/m*3 13.8 C 0 km/h
196 04-06-2004 15:02:01 14 C 10.25 g/m*3 14 C 0 km/h
197 04-06-2004 15:14:01 14.2 C 10.26 g/m*3 14.2 C 0 km/h
198 04-06-2004 15:26:01 14.4 C 10.63 g/m*3 14.4 C 0 km/h
199 04-06-2004 15:38:01 14 C 10.37 g/m*3 14 C 0 km/h
200 04-06-2004 15:50:01 14 C 10.49 g/m*3 14 C 0 km/h
Sensor: Nr:Datum:Temp:Abs-Feuchte:Windchill:Wind:
Aussen-T/F 201 04-06-2004 16:02:02 14.1 C 10.68 g/m*3 14.1 C 0 km/h
202 04-06-2004 16:14:02 14.1 C 10.68 g/m*3 14.1 C 0 km/h
203 04-06-2004 16:26:01 14.4 C 10.63 g/m*3 14.4 C 0 km/h
204 04-06-2004 16:38:01 14.6 C 10.64 g/m*3 14.6 C 0 km/h
205 04-06-2004 16:50:01 14.5 C 10.57 g/m*3 14.5 C 0 km/h
206 04-06-2004 17:02:01 14.6 C 10.26 g/m*3 14.6 C 0 km/h
207 04-06-2004 17:14:01 15.1 C 10.45 g/m*3 15.1 C 0 km/h
208 04-06-2004 17:26:01 15.4 C 10.51 g/m*3 15.4 C 0 km/h
209 04-06-2004 17:38:01 15.8 C 10.5 g/m*3 15.8 C 0 km/h
210 04-06-2004 17:50:01 16.1 C 10.42 g/m*3 16.1 C 0 km/h
211 04-06-2004 18:02:01 15.7 C 10.3 g/m*3 15.7 C 0 km/h
212 04-06-2004 18:14:01 15.7 C 10.7 g/m*3 15.7 C 0 km/h
213 04-06-2004 18:26:01 15.9 C 10.97 g/m*3 15.9 C 0 km/h
214 04-06-2004 18:38:01 16 C 10.63 g/m*3 16 C 0 km/h
215 04-06-2004 18:50:01 16 C 10.76 g/m*3 16 C 0 km/h
216 04-06-2004 19:02:01 16 C 10.9 g/m*3 16 C 0 km/h
217 04-06-2004 19:14:01 16.5 C 10.81 g/m*3 16.5 C 0 km/h
218 04-06-2004 19:26:01 16.8 C 11.01 g/m*3 16.8 C 0 km/h
219 04-06-2004 19:38:01 16.7 C 10.37 g/m*3 16.7 C 0 km/h
220 04-06-2004 19:50:01 16.8 C 10.87 g/m*3 16.8 C 0 km/h
221 04-06-2004 20:02:01 16.5 C 10.39 g/m*3 16.5 C 0 km/h
222 04-06-2004 20:14:01 15.9 C 10.29 g/m*3 15.9 C 0 km/h
223 04-06-2004 20:26:01 15.5 C 10.31 g/m*3 15.5 C 0 km/h
224 04-06-2004 20:38:01 15.5 C 10.44 g/m*3 15.5 C 0 km/h
225 04-06-2004 20:50:01 14.9 C 10.32 g/m*3 14.9 C 0 km/h
Sensor: Nr:Datum:Temp:Abs-Feuchte:Windchill:Wind:
Aussen-T/F 226 04-06-2004 21:02:01 14.5 C 10.32 g/m*3 14.5 C 0 km/h
227 04-06-2004 21:14:01 14.2 C 10.26 g/m*3 14.2 C 0 km/h
228 04-06-2004 21:26:02 14.1 C 10.32 g/m*3 14.1 C 0 km/h
229 04-06-2004 21:38:01 14 C 10.37 g/m*3 14 C 0 km/h
230 04-06-2004 21:50:01 14 C 10.37 g/m*3 14 C 0 km/h
231 04-06-2004 22:02:01 14 C 10.37 g/m*3 14 C 0 km/h
232 04-06-2004 22:14:01 14 C 10.37 g/m*3 14 C 0 km/h
233 04-06-2004 22:26:01 14 C 10.37 g/m*3 14 C 0 km/h
234 04-06-2004 22:38:01 13.9 C 10.43 g/m*3 13.9 C 0 km/h
235 04-06-2004 22:50:01 14 C 10.25 g/m*3 14 C 0 km/h
236 04-06-2004 23:02:01 13.8 C 10.25 g/m*3 13.8 C 0 km/h
237 04-06-2004 23:14:01 13.6 C 10.12 g/m*3 13.6 C 0 km/h
238 04-06-2004 23:26:01 13.7 C 10.18 g/m*3 13.7 C 0 km/h
239 04-06-2004 23:38:01 13.7 C 10.07 g/m*3 13.7 C 0 km/h
240 04-06-2004 23:50:01 13.7 C 10.07 g/m*3 13.7 C 0 km/h
241 05-06-2004 00:02:01 13.8 C 10.13 g/m*3 13.8 C 0 km/h
242 05-06-2004 00:14:01 13.7 C 9.95 g/m*3 13.7 C 0 km/h
243 05-06-2004 00:26:01 13.8 C 10.01 g/m*3 13.8 C 0 km/h
244 05-06-2004 00:38:01 13.8 C 9.89 g/m*3 13.8 C 0 km/h
245 05-06-2004 00:50:01 13.7 C 9.83 g/m*3 13.7 C 0 km/h
246 05-06-2004 01:02:01 13.7 C 9.83 g/m*3 13.7 C 0 km/h
247 05-06-2004 01:14:01 13.7 C 9.95 g/m*3 13.7 C 0 km/h
248 05-06-2004 01:26:01 13.4 C 9.88 g/m*3 13.4 C 0 km/h
249 05-06-2004 01:38:01 13.4 C 10 g/m*3 13.4 C 0 km/h
250 05-06-2004 01:50:01 13.5 C 10.06 g/m*3 13.5 C 0 km/h
Sensor: Nr:Datum:Temp:Abs-Feuchte:Windchill:Wind:
Aussen-T/F 251 05-06-2004 02:02:01 13.6 C 10 g/m*3 13.6 C 0 km/h
252 05-06-2004 02:14:01 13.4 C 10.11 g/m*3 13.4 C 0 km/h
253 05-06-2004 02:26:01 13.3 C 10.05 g/m*3 13.3 C 0 km/h
254 05-06-2004 02:38:01 13.4 C 10.23 g/m*3 13.4 C 0 km/h
255 05-06-2004 02:51:03 13.2 C 10.22 g/m*3 13.2 C 0 km/h
256 05-06-2004 03:03:03 13.1 C 10.16 g/m*3 13.1 C 0 km/h
257 05-06-2004 03:15:03 13.1 C 10.27 g/m*3 13.1 C 0 km/h
258 05-06-2004 03:27:03 13 C 10.32 g/m*3 13 C 0 km/h
259 05-06-2004 03:39:02 13.1 C 10.38 g/m*3 13.1 C 0 km/h
260 05-06-2004 03:51:02 13 C 10.32 g/m*3 13 C 0 km/h
261 05-06-2004 04:03:02 13 C 10.32 g/m*3 13 C 0 km/h
262 05-06-2004 04:15:02 13.1 C 10.27 g/m*3 13.1 C 0 km/h
263 05-06-2004 04:27:02 13 C 10.21 g/m*3 13 C 0 km/h
264 05-06-2004 04:39:02 13 C 10.21 g/m*3 13 C 0 km/h
265 05-06-2004 04:51:01 13.1 C 10.27 g/m*3 13.1 C 0 km/h
266 05-06-2004 05:03:01 13.1 C 10.38 g/m*3 13.1 C 0 km/h
267 05-06-2004 05:15:01 13 C 10.32 g/m*3 13 C 0 km/h
268 05-06-2004 05:27:01 13 C 10.21 g/m*3 13 C 0 km/h
269 05-06-2004 05:39:01 13 C 10.21 g/m*3 13 C 0 km/h
270 05-06-2004 05:51:01 13 C 10.21 g/m*3 13 C 0 km/h
271 05-06-2004 06:03:01 13.1 C 10.27 g/m*3 13.1 C 0 km/h
272 05-06-2004 06:15:01 13.1 C 10.27 g/m*3 13.1 C 0 km/h
273 05-06-2004 06:27:01 13.1 C 10.27 g/m*3 13.1 C 0 km/h
274 05-06-2004 06:39:01 13.1 C 10.27 g/m*3 13.1 C 0 km/h
275 05-06-2004 06:51:01 13.2 C 9.87 g/m*3 13.2 C 0 km/h
Sensor: Nr:Datum:Temp:Abs-Feuchte:Windchill:Wind:
Aussen-T/F 276 05-06-2004 07:03:01 13.2 C 9.53 g/m*3 13.2 C 0 km/h
277 05-06-2004 07:15:01 13.1 C 9.47 g/m*3 13.1 C 0 km/h
278 05-06-2004 07:27:01 13 C 9.3 g/m*3 13 C 0 km/h
279 05-06-2004 07:39:00 13.1 C 9.24 g/m*3 13.1 C 0 km/h
280 05-06-2004 07:51:01 13.2 C 9.3 g/m*3 13.2 C 0 km/h
281 05-06-2004 08:03:01 13.4 C 9.3 g/m*3 13.4 C 0 km/h
282 05-06-2004 08:15:01 13.5 C 9.12 g/m*3 13.5 C 0 km/h
283 05-06-2004 08:27:01 13.6 C 8.94 g/m*3 13.6 C 0 km/h
284 05-06-2004 08:39:01 13.6 C 8.71 g/m*3 13.6 C 0 km/h
285 05-06-2004 08:51:01 13.5 C 8.77 g/m*3 13.5 C 0 km/h
286 05-06-2004 09:03:01 13.9 C 8.99 g/m*3 13.9 C 0 km/h
287 05-06-2004 09:15:01 13.9 C 8.75 g/m*3 13.9 C 0 km/h
288 05-06-2004 09:27:01 13.8 C 8.58 g/m*3 13.8 C 0 km/h
289 05-06-2004 09:39:00 14.2 C 8.67 g/m*3 14.2 C 0 km/h
290 05-06-2004 09:51:01 14.4 C 8.78 g/m*3 14.4 C 0 km/h
291 05-06-2004 10:03:01 14.7 C 8.56 g/m*3 14.7 C 0 km/h
292 05-06-2004 10:15:01 14.4 C 8.16 g/m*3 14.4 C 0 km/h
293 05-06-2004 10:27:01 14.7 C 8.18 g/m*3 14.7 C 0 km/h
294 05-06-2004 10:39:00 15.1 C 8.13 g/m*3 15.1 C 0 km/h
295 05-06-2004 10:51:01 14.9 C 7.9 g/m*3 14.9 C 0 km/h
296 05-06-2004 11:03:01 15.3 C 7.84 g/m*3 15.3 C 0 km/h
297 05-06-2004 11:15:01 14.4 C 8.03 g/m*3 14.4 C 0 km/h
298 05-06-2004 11:27:01 14.5 C 8.33 g/m*3 14.5 C 0 km/h
299 05-06-2004 11:39:01 14.8 C 8.61 g/m*3 14.8 C 0 km/h
300 05-06-2004 11:51:02 14.4 C 8.28 g/m*3 14.4 C 0 km/h
Sensor: Nr:Datum:Temp:Abs-Feuchte:Windchill:Wind:
Aussen-T/F 301 05-06-2004 12:03:01 14.7 C 8.31 g/m*3 14.7 C 0 km/h
302 05-06-2004 12:15:01 15.2 C 8.31 g/m*3 15.2 C 0 km/h
303 05-06-2004 12:27:01 15.5 C 7.93 g/m*3 15.5 C 0 km/h
304 05-06-2004 12:39:01 16.3 C 7.77 g/m*3 16.3 C 0 km/h
305 05-06-2004 12:51:01 15.8 C 7.81 g/m*3 15.8 C 0 km/h
306 05-06-2004 13:03:01 16.3 C 8.05 g/m*3 16.3 C 0 km/h
307 05-06-2004 13:15:01 16.4 C 7.96 g/m*3 16.4 C 0 km/h
308 05-06-2004 13:27:01 17.3 C 7.81 g/m*3 17.3 C 0 km/h
309 05-06-2004 13:39:01 17.3 C 7.96 g/m*3 17.3 C 0 km/h
310 05-06-2004 13:51:01 16.7 C 7.82 g/m*3 16.7 C 0 km/h
311 05-06-2004 14:03:01 16.5 C 8 g/m*3 16.5 C 0 km/h
312 05-06-2004 14:15:01 15.5 C 7.8 g/m*3 15.5 C 0 km/h
313 05-06-2004 14:27:01 15.2 C 7.92 g/m*3 15.2 C 0 km/h
314 05-06-2004 14:39:01 15.3 C 8.1 g/m*3 15.3 C 0 km/h
315 05-06-2004 14:51:01 15.9 C 8.13 g/m*3 15.9 C 0 km/h
316 05-06-2004 15:03:01 16 C 8.04 g/m*3 16 C 0 km/h
317 05-06-2004 15:15:01 16.5 C 8.14 g/m*3 16.5 C 0 km/h
318 05-06-2004 15:27:01 16.6 C 8.19 g/m*3 16.6 C 0 km/h
319 05-06-2004 15:39:01 16.1 C 8.09 g/m*3 16.1 C 0 km/h
320 05-06-2004 15:51:01 16.8 C 8.15 g/m*3 16.8 C 0 km/h
321 05-06-2004 16:03:01 16.3 C 8.32 g/m*3 16.3 C 0 km/h
322 05-06-2004 16:15:01 16 C 8.04 g/m*3 16 C 0 km/h
323 05-06-2004 16:27:01 15 C 8.85 g/m*3 15 C 0 km/h
324 05-06-2004 16:39:01 14.5 C 9.08 g/m*3 14.5 C 0 km/h
325 05-06-2004 16:51:01 15.3 C 9.01 g/m*3 15.3 C 0 km/h
Sensor: Nr:Datum:Temp:Abs-Feuchte:Windchill:Wind:
Aussen-T/F 326 05-06-2004 17:03:01 15.6 C 8.91 g/m*3 15.6 C 0 km/h
327 05-06-2004 17:15:01 15.4 C 8.15 g/m*3 15.4 C 0 km/h
328 05-06-2004 17:27:01 15.2 C 8.18 g/m*3 15.2 C 0 km/h
329 05-06-2004 17:39:01 15.7 C 8.56 g/m*3 15.7 C 0 km/h
330 05-06-2004 17:51:01 16 C 8.45 g/m*3 16 C 0 km/h
331 05-06-2004 18:03:01 16.1 C 8.36 g/m*3 16.1 C 0 km/h
332 05-06-2004 18:15:01 15.8 C 8.48 g/m*3 15.8 C 0 km/h
333 05-06-2004 18:27:01 15.6 C 8.51 g/m*3 15.6 C 0 km/h
334 05-06-2004 18:39:01 15.6 C 8.51 g/m*3 15.6 C 0 km/h
335 05-06-2004 18:51:01 15.3 C 8.49 g/m*3 15.3 C 0 km/h
336 05-06-2004 19:03:01 15.3 C 8.75 g/m*3 15.3 C 0 km/h
337 05-06-2004 19:15:01 15.2 C 8.7 g/m*3 15.2 C 0 km/h
338 05-06-2004 19:27:01 15.4 C 8.8 g/m*3 15.4 C 0 km/h
339 05-06-2004 19:39:01 15.7 C 8.96 g/m*3 15.7 C 0 km/h
340 05-06-2004 19:51:01 15.6 C 8.91 g/m*3 15.6 C 0 km/h
341 05-06-2004 20:03:01 15.2 C 8.83 g/m*3 15.2 C 0 km/h
342 05-06-2004 20:15:01 15.1 C 8.9 g/m*3 15.1 C 0 km/h
343 05-06-2004 20:27:01 15 C 8.98 g/m*3 15 C 0 km/h
344 05-06-2004 20:39:01 14.8 C 9.12 g/m*3 14.8 C 0 km/h
345 05-06-2004 20:51:01 14.7 C 9.19 g/m*3 14.7 C 0 km/h
346 05-06-2004 21:03:01 14.5 C 9.2 g/m*3 14.5 C 0 km/h
347 05-06-2004 21:15:01 14.3 C 9.21 g/m*3 14.3 C 0 km/h
348 05-06-2004 21:27:01 14.2 C 9.28 g/m*3 14.2 C 0 km/h
349 05-06-2004 21:39:01 13.9 C 9.23 g/m*3 13.9 C 0 km/h
350 05-06-2004 21:51:01 13.5 C 9.12 g/m*3 13.5 C 0 km/h
Sensor: Nr:Datum:Temp:Abs-Feuchte:Windchill:Wind:
Aussen-T/F 351 05-06-2004 22:03:01 13.1 C 9.01 g/m*3 13.1 C 0 km/h
352 05-06-2004 22:15:01 12.8 C 9.07 g/m*3 12.8 C 0 km/h
353 05-06-2004 22:27:01 12.8 C 9.18 g/m*3 12.8 C 0 km/h
354 05-06-2004 22:39:01 12.7 C 9.02 g/m*3 12.7 C 0 km/h
355 05-06-2004 22:51:01 12.6 C 8.96 g/m*3 12.6 C 0 km/h
356 05-06-2004 23:03:01 12.7 C 9.13 g/m*3 12.7 C 0 km/h
357 05-06-2004 23:15:01 12.8 C 9.18 g/m*3 12.8 C 0 km/h
358 05-06-2004 23:27:01 12.8 C 9.07 g/m*3 12.8 C 0 km/h
359 05-06-2004 23:39:01 12.6 C 9.07 g/m*3 12.6 C 0 km/h
360 05-06-2004 23:51:01 12.5 C 9.02 g/m*3 12.5 C 0 km/h
361 06-06-2004 00:03:01 12.2 C 9.06 g/m*3 12.2 C 0 km/h
362 06-06-2004 00:15:02 12.1 C 9.01 g/m*3 12.1 C 0 km/h
363 06-06-2004 00:27:02 12.2 C 9.06 g/m*3 12.2 C 0 km/h
364 06-06-2004 00:39:01 12.2 C 9.06 g/m*3 12.2 C 0 km/h
365 06-06-2004 00:51:01 12 C 8.95 g/m*3 12 C 0 km/h
366 06-06-2004 01:03:01 11.5 C 8.78 g/m*3 11.5 C 0 km/h
367 06-06-2004 01:15:01 11.3 C 8.77 g/m*3 11.3 C 0 km/h
368 06-06-2004 01:27:01 11.1 C 8.66 g/m*3 11.1 C 0 km/h
369 06-06-2004 01:39:01 10.9 C 8.65 g/m*3 10.9 C 0 km/h
370 06-06-2004 01:51:01 10.7 C 8.64 g/m*3 10.7 C 0 km/h
371 06-06-2004 02:03:01 10.4 C 8.48 g/m*3 10.4 C 0 km/h
372 06-06-2004 02:15:01 10.4 C 8.58 g/m*3 10.4 C 0 km/h
373 06-06-2004 02:27:01 10.3 C 8.62 g/m*3 10.3 C 0 km/h
374 06-06-2004 02:39:01 10.1 C 8.51 g/m*3 10.1 C 0 km/h
375 06-06-2004 02:52:03 10 C 8.46 g/m*3 10 C 0 km/h
Sensor: Nr:Datum:Temp:Abs-Feuchte:Windchill:Wind:
Aussen-T/F 376 06-06-2004 03:04:03 10 C 8.55 g/m*3 10 C 0 km/h
377 06-06-2004 03:16:03 9.8 C 8.54 g/m*3 9.8 C 0 km/h
378 06-06-2004 03:28:03 9.6 C 8.43 g/m*3 9.6 C 0 km/h
379 06-06-2004 03:40:01 9.5 C 8.37 g/m*3 9.5 C 0 km/h
380 06-06-2004 03:52:01 9.4 C 8.23 g/m*3 9.4 C 0 km/h
381 06-06-2004 04:04:01 9.3 C 8.18 g/m*3 9.3 C 0 km/h
382 06-06-2004 04:16:01 9.2 C 8.22 g/m*3 9.2 C 0 km/h
383 06-06-2004 04:28:01 9.1 C 8.16 g/m*3 9.1 C 0 km/h
384 06-06-2004 04:40:01 8.9 C 8.15 g/m*3 8.9 C 0 km/h
385 06-06-2004 04:52:01 8.8 C 8.09 g/m*3 8.8 C 0 km/h
386 06-06-2004 05:04:01 8.9 C 8.23 g/m*3 8.9 C 0 km/h
387 06-06-2004 05:16:01 9 C 8.29 g/m*3 9 C 0 km/h
388 06-06-2004 05:28:01 8.9 C 8.32 g/m*3 8.9 C 0 km/h
389 06-06-2004 05:40:01 9 C 8.29 g/m*3 9 C 0 km/h
390 06-06-2004 05:52:01 9.1 C 8.34 g/m*3 9.1 C 0 km/h
391 06-06-2004 06:04:01 9.2 C 8.39 g/m*3 9.2 C 0 km/h
392 06-06-2004 06:16:00 9.5 C 8.65 g/m*3 9.5 C 0 km/h
393 06-06-2004 06:28:00 9.6 C 8.7 g/m*3 9.6 C 0 km/h
394 06-06-2004 06:40:00 9.7 C 8.76 g/m*3 9.7 C 0 km/h
395 06-06-2004 06:52:01 9.9 C 8.78 g/m*3 9.9 C 0 km/h
396 06-06-2004 07:04:01 10 C 8.74 g/m*3 10 C 0 km/h
397 06-06-2004 07:16:01 10.2 C 8.76 g/m*3 10.2 C 0 km/h
398 06-06-2004 07:28:01 10.5 C 8.83 g/m*3 10.5 C 0 km/h
399 06-06-2004 07:40:00 10.8 C 8.9 g/m*3 10.8 C 0 km/h
400 06-06-2004 07:52:01 10.7 C 8.84 g/m*3 10.7 C 0 km/h
Sensor: Nr:Datum:Temp:Abs-Feuchte:Windchill:Wind:
Aussen-T/F 401 06-06-2004 08:04:01 11.1 C 8.96 g/m*3 11.1 C 0 km/h
402 06-06-2004 08:16:01 11.2 C 8.92 g/m*3 11.2 C 0 km/h
403 06-06-2004 08:28:01 11.7 C 9.1 g/m*3 11.7 C 0 km/h
404 06-06-2004 08:40:00 12 C 9.06 g/m*3 12 C 0 km/h
405 06-06-2004 08:52:01 12 C 8.85 g/m*3 12 C 0 km/h
406 06-06-2004 09:04:01 12.1 C 8.79 g/m*3 12.1 C 0 km/h
407 06-06-2004 09:16:01 12.5 C 9.13 g/m*3 12.5 C 0 km/h
408 06-06-2004 09:28:01 12.9 C 9.13 g/m*3 12.9 C 0 km/h
409 06-06-2004 09:40:00 13.4 C 8.95 g/m*3 13.4 C 0 km/h
410 06-06-2004 09:52:01 13.9 C 8.99 g/m*3 13.9 C 0 km/h
411 06-06-2004 10:04:01 14.4 C 8.78 g/m*3 14.4 C 0 km/h
412 06-06-2004 10:16:02 15.2 C 9.09 g/m*3 15.2 C 0 km/h
413 06-06-2004 10:28:02 15.8 C 8.75 g/m*3 15.8 C 0 km/h
414 06-06-2004 10:40:01 16 C 8.72 g/m*3 16 C 0 km/h
415 06-06-2004 10:52:01 15.7 C 8.7 g/m*3 15.7 C 0 km/h
416 06-06-2004 11:04:02 15.8 C 9.29 g/m*3 15.8 C 0 km/h
417 06-06-2004 11:16:02 16.9 C 9.21 g/m*3 16.9 C 0 km/h
418 06-06-2004 11:28:03 17.4 C 9.19 g/m*3 17.4 C 0 km/h
419 06-06-2004 11:40:02 18.1 C 9.12 g/m*3 18.1 C 0 km/h
420 06-06-2004 11:52:01 19.2 C 9.4 g/m*3 19.2 C 0 km/h
421 06-06-2004 12:04:03 19.4 C 9.51 g/m*3 19.4 C 0 km/h
422 06-06-2004 12:16:01 19.7 C 9 g/m*3 19.7 C 0 km/h
423 06-06-2004 12:28:01 20.8 C 9.23 g/m*3 20.8 C 0 km/h
424 06-06-2004 12:40:02 20.1 C 8.34 g/m*3 20.1 C 0 km/h
425 06-06-2004 12:52:02 20 C 8.12 g/m*3 20 C 0 km/h
Sensor: Nr:Datum:Temp:Abs-Feuchte:Windchill:Wind:
Aussen-T/F 426 06-06-2004 13:04:03 20.5 C 7.65 g/m*3 20.5 C 0 km/h
427 06-06-2004 13:16:01 20.9 C 7.29 g/m*3 20.9 C 0 km/h
428 06-06-2004 13:28:01 22.2 C 7.07 g/m*3 22.2 C 0 km/h
429 06-06-2004 13:40:01 21.9 C 7.91 g/m*3 21.9 C 0 km/h
430 06-06-2004 13:52:01 21.6 C 7.02 g/m*3 21.6 C 0 km/h
431 06-06-2004 14:04:01 22.6 C 7.43 g/m*3 22.6 C 0 km/h
432 06-06-2004 14:16:01 22.7 C 7.68 g/m*3 22.7 C 0 km/h
433 06-06-2004 14:28:01 22.1 C 7.42 g/m*3 22.1 C 0 km/h
434 06-06-2004 14:40:01 22.1 C 7.81 g/m*3 22.1 C 0 km/h
435 06-06-2004 14:52:01 22.8 C 7.72 g/m*3 22.8 C 0 km/h
436 06-06-2004 15:04:01 23 C 7.6 g/m*3 23 C 0 km/h
437 06-06-2004 15:16:01 22.9 C 8.17 g/m*3 22.9 C 0 km/h
438 06-06-2004 15:28:01 24.3 C 7.75 g/m*3 24.3 C 0 km/h
439 06-06-2004 15:40:01 24.9 C 7.55 g/m*3 24.9 C 0 km/h
440 06-06-2004 15:52:01 25.4 C 7.53 g/m*3 25.4 C 0 km/h
441 06-06-2004 16:04:01 25.1 C 7.87 g/m*3 25.1 C 0 km/h
442 06-06-2004 16:16:01 26.8 C 7.89 g/m*3 26.8 C 0 km/h
443 06-06-2004 16:28:01 26.4 C 7.72 g/m*3 26.4 C 0 km/h
444 06-06-2004 16:40:01 25.6 C 8.57 g/m*3 25.6 C 0 km/h
445 06-06-2004 16:52:01 26.7 C 7.59 g/m*3 26.7 C 0 km/h
446 06-06-2004 17:04:01 26.1 C 7.59 g/m*3 26.1 C 0 km/h
447 06-06-2004 17:16:01 24.6 C 6.98 g/m*3 24.6 C 0 km/h
448 06-06-2004 17:28:01 25.7 C 7.18 g/m*3 25.7 C 0 km/h
449 06-06-2004 17:40:01 24.8 C 7.28 g/m*3 24.8 C 0 km/h
450 06-06-2004 17:52:01 24.4 C 7.79 g/m*3 24.4 C 0 km/h
Sensor: Nr:Datum:Temp:Abs-Feuchte:Windchill:Wind:
Aussen-T/F 451 06-06-2004 18:04:01 24.4 C 7.34 g/m*3 24.4 C 0 km/h
452 06-06-2004 18:16:01 24 C 7.4 g/m*3 24 C 0 km/h
453 06-06-2004 18:28:01 24.8 C 7.51 g/m*3 24.8 C 0 km/h
454 06-06-2004 18:40:01 25 C 7.37 g/m*3 25 C 0 km/h
455 06-06-2004 18:52:01 25.2 C 7.68 g/m*3 25.2 C 0 km/h
456 06-06-2004 19:04:01 25 C 7.14 g/m*3 25 C 0 km/h
457 06-06-2004 19:16:01 24.9 C 7.32 g/m*3 24.9 C 0 km/h
458 06-06-2004 19:28:01 24.5 C 7.39 g/m*3 24.5 C 0 km/h
459 06-06-2004 19:40:01 25.1 C 7.64 g/m*3 25.1 C 0 km/h
460 06-06-2004 19:52:01 24.5 C 7.61 g/m*3 24.5 C 0 km/h
461 06-06-2004 20:04:01 24.5 C 9.4 g/m*3 24.5 C 0 km/h
462 06-06-2004 20:16:01 24.4 C 9.35 g/m*3 24.4 C 0 km/h
463 06-06-2004 20:28:01 24.3 C 9.07 g/m*3 24.3 C 0 km/h
464 06-06-2004 20:40:01 23.4 C 9.46 g/m*3 23.4 C 0 km/h
465 06-06-2004 20:52:01 22.4 C 9.33 g/m*3 22.4 C 0 km/h
466 06-06-2004 21:04:01 21 C 9.53 g/m*3 21 C 0 km/h
467 06-06-2004 21:16:01 20.2 C 9.27 g/m*3 20.2 C 0 km/h
468 06-06-2004 21:28:01 19.3 C 9.29 g/m*3 19.3 C 0 km/h
469 06-06-2004 21:40:01 18.8 C 9.18 g/m*3 18.8 C 0 km/h
470 06-06-2004 21:52:01 18.5 C 9.33 g/m*3 18.5 C 0 km/h
471 06-06-2004 22:04:01 18.3 C 8.76 g/m*3 18.3 C 0 km/h
472 06-06-2004 22:16:01 17.9 C 9.01 g/m*3 17.9 C 0 km/h
473 06-06-2004 22:28:01 17.5 C 8.95 g/m*3 17.5 C 0 km/h
474 06-06-2004 22:40:01 17.3 C 8.99 g/m*3 17.3 C 0 km/h
475 06-06-2004 22:52:01 17 C 8.83 g/m*3 17 C 0 km/h
Sensor: Nr:Datum:Temp:Abs-Feuchte:Windchill:Wind:
Aussen-T/F 476 06-06-2004 23:04:01 16.6 C 9.04 g/m*3 16.6 C 0 km/h
477 06-06-2004 23:16:01 16.3 C 9.02 g/m*3 16.3 C 0 km/h
478 06-06-2004 23:28:01 15.9 C 9.07 g/m*3 15.9 C 0 km/h
479 06-06-2004 23:40:01 15.8 C 9.02 g/m*3 15.8 C 0 km/h
480 06-06-2004 23:52:01 15.4 C 8.93 g/m*3 15.4 C 0 km/h
481 07-06-2004 00:04:01 15.2 C 9.09 g/m*3 15.2 C 0 km/h
482 07-06-2004 00:16:01 15 C 9.1 g/m*3 15 C 0 km/h
483 07-06-2004 00:28:01 14.8 C 9.25 g/m*3 14.8 C 0 km/h
484 07-06-2004 00:40:01 14.7 C 9.19 g/m*3 14.7 C 0 km/h
485 07-06-2004 00:52:01 14.4 C 9.15 g/m*3 14.4 C 0 km/h
486 07-06-2004 01:04:01 14.2 C 9.16 g/m*3 14.2 C 0 km/h
487 07-06-2004 01:16:01 14 C 9.17 g/m*3 14 C 0 km/h
488 07-06-2004 01:28:01 14 C 9.17 g/m*3 14 C 0 km/h
489 07-06-2004 01:40:01 13.7 C 9.12 g/m*3 13.7 C 0 km/h
490 07-06-2004 01:52:01 13.3 C 9.01 g/m*3 13.3 C 0 km/h
491 07-06-2004 02:04:01 13.1 C 9.01 g/m*3 13.1 C 0 km/h
492 07-06-2004 02:16:01 13.1 C 9.01 g/m*3 13.1 C 0 km/h
493 07-06-2004 02:28:01 12.9 C 9.13 g/m*3 12.9 C 0 km/h
494 07-06-2004 02:40:01 12.9 C 9.13 g/m*3 12.9 C 0 km/h
495 07-06-2004 02:53:02 12.8 C 9.07 g/m*3 12.8 C 0 km/h
496 07-06-2004 03:05:02 12.5 C 8.91 g/m*3 12.5 C 0 km/h
497 07-06-2004 03:17:02 12.5 C 9.02 g/m*3 12.5 C 0 km/h
498 07-06-2004 03:29:02 12.3 C 8.9 g/m*3 12.3 C 0 km/h
499 07-06-2004 03:41:01 12.1 C 8.9 g/m*3 12.1 C 0 km/h
500 07-06-2004 03:53:01 12 C 8.85 g/m*3 12 C 0 km/h
Sensor: Nr:Datum:Temp:Abs-Feuchte:Windchill:Wind:
Aussen-T/F 501 07-06-2004 04:05:01 11.9 C 8.9 g/m*3 11.9 C 0 km/h
502 07-06-2004 04:17:01 11.8 C 8.84 g/m*3 11.8 C 0 km/h
503 07-06-2004 04:29:01 11.8 C 8.84 g/m*3 11.8 C 0 km/h
504 07-06-2004 04:41:01 11.7 C 8.79 g/m*3 11.7 C 0 km/h
505 07-06-2004 04:53:01 11.5 C 8.68 g/m*3 11.5 C 0 km/h
506 07-06-2004 05:05:01 11.4 C 8.72 g/m*3 11.4 C 0 km/h
507 07-06-2004 05:17:01 11.3 C 8.57 g/m*3 11.3 C 0 km/h
508 07-06-2004 05:29:01 11.2 C 8.51 g/m*3 11.2 C 0 km/h
509 07-06-2004 05:41:01 11.1 C 8.46 g/m*3 11.1 C 0 km/h
510 07-06-2004 05:53:01 11.1 C 8.46 g/m*3 11.1 C 0 km/h
511 07-06-2004 06:05:01 11 C 8.51 g/m*3 11 C 0 km/h
512 07-06-2004 06:17:01 11.1 C 8.56 g/m*3 11.1 C 0 km/h
513 07-06-2004 06:29:01 10.9 C 8.65 g/m*3 10.9 C 0 km/h
514 07-06-2004 06:41:01 11 C 8.71 g/m*3 11 C 0 km/h
515 07-06-2004 06:53:01 11.2 C 8.82 g/m*3 11.2 C 0 km/h
516 07-06-2004 07:05:01 11.4 C 8.83 g/m*3 11.4 C 0 km/h
517 07-06-2004 07:17:01 11.3 C 8.77 g/m*3 11.3 C 0 km/h
518 07-06-2004 07:29:01 11.5 C 8.88 g/m*3 11.5 C 0 km/h
519 07-06-2004 07:41:01 11.7 C 8.89 g/m*3 11.7 C 0 km/h
520 07-06-2004 07:53:01 11.8 C 8.95 g/m*3 11.8 C 0 km/h
521 07-06-2004 08:05:01 12.2 C 8.96 g/m*3 12.2 C 0 km/h
522 07-06-2004 08:17:01 12.5 C 8.91 g/m*3 12.5 C 0 km/h
523 07-06-2004 08:29:01 12.9 C 9.02 g/m*3 12.9 C 0 km/h
524 07-06-2004 08:41:01 13.3 C 9.01 g/m*3 13.3 C 0 km/h
525 07-06-2004 08:53:01 13.7 C 9.12 g/m*3 13.7 C 0 km/h
Sensor: Nr:Datum:Temp:Abs-Feuchte:Windchill:Wind:
Aussen-T/F 526 07-06-2004 09:05:01 14.2 C 9.16 g/m*3 14.2 C 0 km/h
527 07-06-2004 09:17:01 14.9 C 9.56 g/m*3 14.9 C 0 km/h
528 07-06-2004 09:29:01 15.6 C 9.44 g/m*3 15.6 C 0 km/h
529 07-06-2004 09:41:01 16.6 C 10.03 g/m*3 16.6 C 0 km/h
530 07-06-2004 09:53:01 17.4 C 10.23 g/m*3 17.4 C 0 km/h
531 07-06-2004 10:05:01 18.3 C 9.85 g/m*3 18.3 C 0 km/h
532 07-06-2004 10:17:01 19.1 C 10 g/m*3 19.1 C 0 km/h
533 07-06-2004 10:29:01 19.7 C 10.19 g/m*3 19.7 C 0 km/h
534 07-06-2004 10:41:01 20.7 C 10.62 g/m*3 20.7 C 0 km/h
535 07-06-2004 10:53:01 21.5 C 9.81 g/m*3 21.5 C 0 km/h
536 07-06-2004 11:05:01 22 C 9.51 g/m*3 22 C 0 km/h
537 07-06-2004 11:17:01 23.1 C 9.92 g/m*3 23.1 C 0 km/h
538 07-06-2004 11:29:01 23.7 C 9.63 g/m*3 23.7 C 0 km/h
539 07-06-2004 11:41:01 24.1 C 8.75 g/m*3 24.1 C 0 km/h
540 07-06-2004 11:53:01 24.8 C 8.42 g/m*3 24.8 C 0 km/h
541 07-06-2004 12:05:01 24.8 C 8.19 g/m*3 24.8 C 0 km/h
542 07-06-2004 12:17:01 25.6 C 7.62 g/m*3 25.6 C 0 km/h
543 07-06-2004 12:29:01 25.6 C 7.38 g/m*3 25.6 C 0 km/h
544 07-06-2004 12:41:02 26.7 C 7.85 g/m*3 26.7 C 0 km/h
545 07-06-2004 12:53:01 27.4 C 7.37 g/m*3 27.4 C 0 km/h
546 07-06-2004 13:05:02 26.4 C 6.97 g/m*3 26.4 C 0 km/h
547 07-06-2004 13:17:01 27.7 C 7.49 g/m*3 27.7 C 0 km/h
548 07-06-2004 13:29:01 29 C 7.18 g/m*3 29 C 0 km/h
549 07-06-2004 13:41:02 27.8 C 7.26 g/m*3 27.8 C 0 km/h
550 07-06-2004 13:53:02 28.7 C 7.06 g/m*3 28.7 C 0 km/h
Sensor: Nr:Datum:Temp:Abs-Feuchte:Windchill:Wind:
Aussen-T/F 551 07-06-2004 14:05:02 27.4 C 6.84 g/m*3 27.4 C 0 km/h
552 07-06-2004 14:17:02 27.3 C 7.85 g/m*3 27.3 C 0 km/h
553 07-06-2004 14:29:02 28 C 7.89 g/m*3 28 C 0 km/h
554 07-06-2004 14:41:02 28.4 C 7.78 g/m*3 28.4 C 0 km/h
555 07-06-2004 14:53:02 27.9 C 8.11 g/m*3 27.9 C 0 km/h
556 07-06-2004 15:05:02 28.8 C 7.67 g/m*3 28.8 C 0 km/h
557 07-06-2004 15:17:02 28.4 C 7.78 g/m*3 28.4 C 0 km/h
558 07-06-2004 15:29:02 29.3 C 7.59 g/m*3 29.3 C 0 km/h
559 07-06-2004 15:41:02 28.7 C 7.63 g/m*3 28.7 C 0 km/h
560 07-06-2004 15:53:01 29.2 C 7.55 g/m*3 29.2 C 0 km/h
561 07-06-2004 16:05:01 29.5 C 7.38 g/m*3 29.5 C 0 km/h
562 07-06-2004 16:17:01 29.5 C 7.67 g/m*3 29.5 C 0 km/h
563 07-06-2004 16:29:01 30 C 7.88 g/m*3 30 C 0 km/h
564 07-06-2004 16:41:01 30.3 C 8.01 g/m*3 30.3 C 0 km/h
565 07-06-2004 16:53:01 30.3 C 7.4 g/m*3 30.3 C 0 km/h
566 07-06-2004 17:05:01 30.4 C 7.44 g/m*3 30.4 C 0 km/h
567 07-06-2004 17:17:01 30.4 C 7.13 g/m*3 30.4 C 0 km/h
568 07-06-2004 17:29:01 30.6 C 6.89 g/m*3 30.6 C 0 km/h
569 07-06-2004 17:41:01 30.1 C 7.01 g/m*3 30.1 C 0 km/h
570 07-06-2004 17:53:01 30.1 C 7.32 g/m*3 30.1 C 0 km/h
571 07-06-2004 18:05:01 30.2 C 7.36 g/m*3 30.2 C 0 km/h
572 07-06-2004 18:17:01 30.6 C 7.2 g/m*3 30.6 C 0 km/h
573 07-06-2004 18:29:01 30.9 C 7 g/m*3 30.9 C 0 km/h
574 07-06-2004 18:41:01 30.6 C 7.2 g/m*3 30.6 C 0 km/h
575 07-06-2004 18:53:01 30.6 C 7.2 g/m*3 30.6 C 0 km/h
Sensor: Nr:Datum:Temp:Abs-Feuchte:Windchill:Wind:
Aussen-T/F 576 07-06-2004 19:05:01 30.3 C 7.7 g/m*3 30.3 C 0 km/h
577 07-06-2004 19:17:01 30.3 C 8.01 g/m*3 30.3 C 0 km/h
578 07-06-2004 19:29:01 29.9 C 9.05 g/m*3 29.9 C 0 km/h
579 07-06-2004 19:41:01 30.4 C 9.61 g/m*3 30.4 C 0 km/h
580 07-06-2004 19:53:01 30.3 C 9.55 g/m*3 30.3 C 0 km/h
581 07-06-2004 20:05:01 29.8 C 10.5 g/m*3 29.8 C 0 km/h
582 07-06-2004 20:17:01 28.6 C 10.12 g/m*3 28.6 C 0 km/h
583 07-06-2004 20:29:01 28.1 C 9.57 g/m*3 28.1 C 0 km/h
584 07-06-2004 20:41:01 27.4 C 9.47 g/m*3 27.4 C 0 km/h
585 07-06-2004 20:53:01 26.6 C 9.57 g/m*3 26.6 C 0 km/h
586 07-06-2004 21:05:01 25.1 C 9.49 g/m*3 25.1 C 0 km/h
587 07-06-2004 21:17:01 24.1 C 9.41 g/m*3 24.1 C 0 km/h
588 07-06-2004 21:29:01 23.6 C 10 g/m*3 23.6 C 0 km/h
589 07-06-2004 21:41:01 23 C 10.28 g/m*3 23 C 0 km/h
590 07-06-2004 21:53:01 22.8 C 10.57 g/m*3 22.8 C 0 km/h
591 07-06-2004 22:05:01 22.4 C 10.53 g/m*3 22.4 C 0 km/h
592 07-06-2004 22:17:01 22.2 C 10.41 g/m*3 22.2 C 0 km/h
593 07-06-2004 22:29:01 21.9 C 10.23 g/m*3 21.9 C 0 km/h
594 07-06-2004 22:41:01 21.1 C 9.77 g/m*3 21.1 C 0 km/h
595 07-06-2004 22:53:01 21.1 C 10.32 g/m*3 21.1 C 0 km/h
596 07-06-2004 23:05:01 20.6 C 10.56 g/m*3 20.6 C 0 km/h
597 07-06-2004 23:17:01 20.1 C 10.26 g/m*3 20.1 C 0 km/h
598 07-06-2004 23:29:01 19.8 C 10.59 g/m*3 19.8 C 0 km/h
599 07-06-2004 23:41:01 19.5 C 10.41 g/m*3 19.5 C 0 km/h
600 07-06-2004 23:53:01 19.5 C 10.57 g/m*3 19.5 C 0 km/h
Sensor: Nr:Datum:Temp:Abs-Feuchte:Windchill:Wind:
Aussen-T/F 601 08-06-2004 00:05:01 19.1 C 10.49 g/m*3 19.1 C 0 km/h
602 08-06-2004 00:17:01 18.8 C 10.63 g/m*3 18.8 C 0 km/h
603 08-06-2004 00:29:01 18.7 C 10.57 g/m*3 18.7 C 0 km/h
604 08-06-2004 00:41:00 18.4 C 10.38 g/m*3 18.4 C 0 km/h
605 08-06-2004 00:53:01 18.3 C 10.48 g/m*3 18.3 C 0 km/h
606 08-06-2004 01:05:01 17.9 C 10.38 g/m*3 17.9 C 0 km/h
607 08-06-2004 01:17:01 17.9 C 10.54 g/m*3 17.9 C 0 km/h
608 08-06-2004 01:29:01 17.7 C 10.56 g/m*3 17.7 C 0 km/h
609 08-06-2004 01:41:01 17.5 C 10.73 g/m*3 17.5 C 0 km/h
610 08-06-2004 01:53:01 17.4 C 10.52 g/m*3 17.4 C 0 km/h
611 08-06-2004 02:05:01 16.8 C 10.44 g/m*3 16.8 C 0 km/h
612 08-06-2004 02:17:01 16.7 C 10.52 g/m*3 16.7 C 0 km/h
613 08-06-2004 02:29:01 16.6 C 10.45 g/m*3 16.6 C 0 km/h
614 08-06-2004 02:41:01 16.6 C 10.45 g/m*3 16.6 C 0 km/h
615 08-06-2004 02:54:03 16.2 C 10.34 g/m*3 16.2 C 0 km/h
616 08-06-2004 03:06:03 16 C 10.49 g/m*3 16 C 0 km/h
617 08-06-2004 03:18:03 16 C 10.35 g/m*3 16 C 0 km/h
618 08-06-2004 03:30:03 15.7 C 10.3 g/m*3 15.7 C 0 km/h
619 08-06-2004 03:42:01 15.6 C 10.37 g/m*3 15.6 C 0 km/h
620 08-06-2004 03:54:01 15.5 C 10.44 g/m*3 15.5 C 0 km/h
621 08-06-2004 04:06:01 15.2 C 10.25 g/m*3 15.2 C 0 km/h
622 08-06-2004 04:18:01 14.9 C 10.32 g/m*3 14.9 C 0 km/h
623 08-06-2004 04:30:01 14.8 C 10.26 g/m*3 14.8 C 0 km/h
624 08-06-2004 04:42:01 14.9 C 10.32 g/m*3 14.9 C 0 km/h
625 08-06-2004 04:54:01 14.7 C 10.2 g/m*3 14.7 C 0 km/h
Sensor: Nr:Datum:Temp:Abs-Feuchte:Windchill:Wind:
Aussen-T/F 626 08-06-2004 05:06:01 14.7 C 10.2 g/m*3 14.7 C 0 km/h
627 08-06-2004 05:18:01 14.6 C 10.14 g/m*3 14.6 C 0 km/h
628 08-06-2004 05:30:01 14.6 C 10.14 g/m*3 14.6 C 0 km/h
629 08-06-2004 05:42:01 14.5 C 10.07 g/m*3 14.5 C 0 km/h
630 08-06-2004 05:54:01 14.5 C 10.07 g/m*3 14.5 C 0 km/h
631 08-06-2004 06:06:01 14.1 C 9.95 g/m*3 14.1 C 0 km/h
632 08-06-2004 06:18:01 14 C 10.01 g/m*3 14 C 0 km/h
633 08-06-2004 06:30:01 14 C 10.13 g/m*3 14 C 0 km/h
634 08-06-2004 06:42:01 14.2 C 10.26 g/m*3 14.2 C 0 km/h
635 08-06-2004 06:54:01 14.3 C 10.2 g/m*3 14.3 C 0 km/h
636 08-06-2004 07:06:01 14.6 C 10.39 g/m*3 14.6 C 0 km/h
637 08-06-2004 07:18:01 14.9 C 10.45 g/m*3 14.9 C 0 km/h
638 08-06-2004 07:30:01 15.2 C 10.38 g/m*3 15.2 C 0 km/h
639 08-06-2004 07:42:01 15.6 C 10.37 g/m*3 15.6 C 0 km/h
640 08-06-2004 07:54:01 15.8 C 10.36 g/m*3 15.8 C 0 km/h
641 08-06-2004 08:06:01 16.1 C 10.28 g/m*3 16.1 C 0 km/h
642 08-06-2004 08:18:01 16.4 C 10.33 g/m*3 16.4 C 0 km/h
643 08-06-2004 08:30:01 16.7 C 10.66 g/m*3 16.7 C 0 km/h
644 08-06-2004 08:42:01 17 C 10.42 g/m*3 17 C 0 km/h
645 08-06-2004 08:54:01 17.4 C 10.97 g/m*3 17.4 C 0 km/h
646 08-06-2004 09:06:01 18.1 C 11.12 g/m*3 18.1 C 0 km/h
647 08-06-2004 09:18:01 18.8 C 11.11 g/m*3 18.8 C 0 km/h
648 08-06-2004 09:30:01 19.7 C 11.38 g/m*3 19.7 C 0 km/h
649 08-06-2004 09:42:01 20.6 C 11.45 g/m*3 20.6 C 0 km/h
650 08-06-2004 09:54:01 21.3 C 11.74 g/m*3 21.3 C 0 km/h
Sensor: Nr:Datum:Temp:Abs-Feuchte:Windchill:Wind:
Aussen-T/F 651 08-06-2004 10:06:01 22 C 11.06 g/m*3 22 C 0 km/h
652 08-06-2004 10:18:01 22.7 C 11.72 g/m*3 22.7 C 0 km/h
653 08-06-2004 10:30:01 23.2 C 11.23 g/m*3 23.2 C 0 km/h
654 08-06-2004 10:42:01 24.1 C 11.82 g/m*3 24.1 C 0 km/h
655 08-06-2004 10:54:01 25 C 11.74 g/m*3 25 C 0 km/h
656 08-06-2004 11:06:01 25.1 C 11.11 g/m*3 25.1 C 0 km/h
657 08-06-2004 11:18:01 25.7 C 10.77 g/m*3 25.7 C 0 km/h
658 08-06-2004 11:30:01 26.3 C 10.64 g/m*3 26.3 C 0 km/h
659 08-06-2004 11:42:01 26.7 C 10.63 g/m*3 26.7 C 0 km/h
660 08-06-2004 11:54:01 27.1 C 10.09 g/m*3 27.1 C 0 km/h
661 08-06-2004 12:06:01 27.8 C 9.95 g/m*3 27.8 C 0 km/h
662 08-06-2004 12:18:01 28.4 C 9.73 g/m*3 28.4 C 0 km/h
663 08-06-2004 12:30:01 28.6 C 9.27 g/m*3 28.6 C 0 km/h
664 08-06-2004 12:42:02 29.3 C 9.34 g/m*3 29.3 C 0 km/h
665 08-06-2004 12:54:01 29.2 C 8.71 g/m*3 29.2 C 0 km/h
666 08-06-2004 13:06:02 29.9 C 9.35 g/m*3 29.9 C 0 km/h
667 08-06-2004 13:18:02 30.4 C 9.3 g/m*3 30.4 C 0 km/h
668 08-06-2004 13:30:02 30.7 C 8.19 g/m*3 30.7 C 0 km/h
669 08-06-2004 13:42:02 30.9 C 7.96 g/m*3 30.9 C 0 km/h
670 08-06-2004 13:54:01 30.6 C 7.83 g/m*3 30.6 C 0 km/h
671 08-06-2004 14:06:01 30.6 C 8.14 g/m*3 30.6 C 0 km/h
672 08-06-2004 14:18:01 30.6 C 7.83 g/m*3 30.6 C 0 km/h
673 08-06-2004 14:30:01 30.4 C 7.75 g/m*3 30.4 C 0 km/h
674 08-06-2004 14:42:01 30.7 C 7.87 g/m*3 30.7 C 0 km/h
675 08-06-2004 14:54:01 31 C 8 g/m*3 31 C 0 km/h
Sensor: Nr:Datum:Temp:Abs-Feuchte:Windchill:Wind:
Aussen-T/F 676 08-06-2004 15:06:01 30.9 C 7.96 g/m*3 30.9 C 0 km/h
677 08-06-2004 15:18:01 31.1 C 7.72 g/m*3 31.1 C 0 km/h
678 08-06-2004 15:30:01 31.1 C 7.72 g/m*3 31.1 C 0 km/h
679 08-06-2004 15:42:01 31.4 C 7.85 g/m*3 31.4 C 0 km/h
680 08-06-2004 15:54:01 31.4 C 7.52 g/m*3 31.4 C 0 km/h
681 08-06-2004 16:06:01 31.4 C 7.85 g/m*3 31.4 C 0 km/h
682 08-06-2004 16:18:01 31.5 C 7.89 g/m*3 31.5 C 0 km/h
683 08-06-2004 16:30:01 31.8 C 7.68 g/m*3 31.8 C 0 km/h
684 08-06-2004 16:42:01 31.6 C 7.6 g/m*3 31.6 C 0 km/h
685 08-06-2004 16:54:01 32.4 C 7.93 g/m*3 32.4 C 0 km/h
686 08-06-2004 17:06:01 32 C 7.76 g/m*3 32 C 0 km/h
687 08-06-2004 17:18:01 32 C 8.44 g/m*3 32 C 0 km/h
688 08-06-2004 17:30:01 32 C 7.76 g/m*3 32 C 0 km/h
689 08-06-2004 17:42:03 32.3 C 8.58 g/m*3 32.3 C 0 km/h
690 08-06-2004 17:54:02 32.3 C 8.58 g/m*3 32.3 C 0 km/h
691 08-06-2004 18:06:02 32.5 C 8.67 g/m*3 32.5 C 0 km/h
692 08-06-2004 18:18:02 32.3 C 8.58 g/m*3 32.3 C 0 km/h
693 08-06-2004 18:30:02 32.3 C 8.58 g/m*3 32.3 C 0 km/h
694 08-06-2004 18:42:04 32.3 C 8.58 g/m*3 32.3 C 0 km/h
695 08-06-2004 18:54:03 32.1 C 8.82 g/m*3 32.1 C 0 km/h
696 08-06-2004 19:06:03 32.3 C 7.89 g/m*3 32.3 C 0 km/h
697 08-06-2004 19:18:03 32.4 C 8.62 g/m*3 32.4 C 0 km/h
698 08-06-2004 19:30:03 32.1 C 9.84 g/m*3 32.1 C 0 km/h
699 08-06-2004 19:42:03 31.9 C 10.41 g/m*3 31.9 C 0 km/h
700 08-06-2004 19:54:04 31.5 C 9.86 g/m*3 31.5 C 0 km/h
Sensor: Nr:Datum:Temp:Abs-Feuchte:Windchill:Wind:
Aussen-T/F 701 08-06-2004 20:06:02 31.2 C 10.35 g/m*3 31.2 C 0 km/h
702 08-06-2004 20:18:01 30.8 C 10.45 g/m*3 30.8 C 0 km/h
703 08-06-2004 20:30:01 30.4 C 10.85 g/m*3 30.4 C 0 km/h
704 08-06-2004 20:42:01 29.8 C 11.1 g/m*3 29.8 C 0 km/h
705 08-06-2004 20:54:01 28.9 C 11.14 g/m*3 28.9 C 0 km/h
706 08-06-2004 21:06:01 27.6 C 11.17 g/m*3 27.6 C 0 km/h
707 08-06-2004 21:18:01 27.3 C 11.51 g/m*3 27.3 C 0 km/h
708 08-06-2004 21:30:01 26.9 C 11.77 g/m*3 26.9 C 0 km/h
709 08-06-2004 21:42:01 26.5 C 11.77 g/m*3 26.5 C 0 km/h
710 08-06-2004 21:54:01 25.7 C 11.97 g/m*3 25.7 C 0 km/h
711 08-06-2004 22:06:01 25.3 C 11.94 g/m*3 25.3 C 0 km/h
712 08-06-2004 22:18:02 24.9 C 11.67 g/m*3 24.9 C 0 km/h
713 08-06-2004 22:30:02 24.7 C 12 g/m*3 24.7 C 0 km/h
714 08-06-2004 22:42:01 24.5 C 11.86 g/m*3 24.5 C 0 km/h
715 08-06-2004 22:54:01 24.2 C 11.88 g/m*3 24.2 C 0 km/h
716 08-06-2004 23:06:01 24.1 C 12.03 g/m*3 24.1 C 0 km/h
717 08-06-2004 23:18:02 23.6 C 11.91 g/m*3 23.6 C 0 km/h
718 08-06-2004 23:30:02 23.2 C 12.06 g/m*3 23.2 C 0 km/h
719 08-06-2004 23:42:02 23 C 12.33 g/m*3 23 C 0 km/h
720 08-06-2004 23:54:02 22.8 C 12.6 g/m*3 22.8 C 0 km/h
721 09-06-2004 00:06:02 22.6 C 12.25 g/m*3 22.6 C 0 km/h
722 09-06-2004 00:18:02 22.4 C 12.31 g/m*3 22.4 C 0 km/h
723 09-06-2004 00:30:02 22 C 12.03 g/m*3 22 C 0 km/h
724 09-06-2004 00:42:02 21.4 C 12.19 g/m*3 21.4 C 0 km/h
725 09-06-2004 00:54:01 21 C 12.09 g/m*3 21 C 0 km/h
Sensor: Nr:Datum:Temp:Abs-Feuchte:Windchill:Wind:
Aussen-T/F 726 09-06-2004 01:06:01 21 C 11.91 g/m*3 21 C 0 km/h
727 09-06-2004 01:18:01 21.1 C 12.34 g/m*3 21.1 C 0 km/h
728 09-06-2004 01:30:01 20.9 C 12.02 g/m*3 20.9 C 0 km/h
729 09-06-2004 01:42:01 20.6 C 11.99 g/m*3 20.6 C 0 km/h
730 09-06-2004 01:54:01 20.3 C 11.96 g/m*3 20.3 C 0 km/h
731 09-06-2004 02:06:01 20.3 C 11.96 g/m*3 20.3 C 0 km/h
732 09-06-2004 02:18:01 19.9 C 12.03 g/m*3 19.9 C 0 km/h
733 09-06-2004 02:30:01 19.9 C 12.03 g/m*3 19.9 C 0 km/h
734 09-06-2004 02:42:01 19.7 C 12.06 g/m*3 19.7 C 0 km/h
735 09-06-2004 02:55:03 19.6 C 11.99 g/m*3 19.6 C 0 km/h
736 09-06-2004 03:07:03 19.5 C 11.92 g/m*3 19.5 C 0 km/h
737 09-06-2004 03:19:03 19.3 C 11.78 g/m*3 19.3 C 0 km/h
738 09-06-2004 03:31:01 19.2 C 11.87 g/m*3 19.2 C 0 km/h
739 09-06-2004 03:43:01 19.1 C 11.8 g/m*3 19.1 C 0 km/h
740 09-06-2004 03:55:01 18.8 C 11.92 g/m*3 18.8 C 0 km/h
741 09-06-2004 04:07:01 18.7 C 11.85 g/m*3 18.7 C 0 km/h
742 09-06-2004 04:19:01 18.4 C 11.8 g/m*3 18.4 C 0 km/h
743 09-06-2004 04:31:01 18.3 C 11.88 g/m*3 18.3 C 0 km/h
744 09-06-2004 04:43:01 18.1 C 11.74 g/m*3 18.1 C 0 km/h
745 09-06-2004 04:55:01 18.2 C 11.81 g/m*3 18.2 C 0 km/h
746 09-06-2004 05:07:01 17.8 C 11.84 g/m*3 17.8 C 0 km/h
747 09-06-2004 05:19:01 17.6 C 11.7 g/m*3 17.6 C 0 km/h
748 09-06-2004 05:31:01 17.5 C 11.63 g/m*3 17.5 C 0 km/h
749 09-06-2004 05:43:01 17.6 C 11.85 g/m*3 17.6 C 0 km/h
750 09-06-2004 05:55:01 17.5 C 11.78 g/m*3 17.5 C 0 km/h
Sensor: Nr:Datum:Temp:Abs-Feuchte:Windchill:Wind:
Aussen-T/F 751 09-06-2004 06:07:01 17.6 C 11.85 g/m*3 17.6 C 0 km/h
752 09-06-2004 06:19:01 17.7 C 11.62 g/m*3 17.7 C 0 km/h
753 09-06-2004 06:31:01 17.6 C 11.7 g/m*3 17.6 C 0 km/h
754 09-06-2004 06:43:01 17.8 C 11.84 g/m*3 17.8 C 0 km/h
755 09-06-2004 06:55:01 18.1 C 11.74 g/m*3 18.1 C 0 km/h
756 09-06-2004 07:07:01 18.3 C 11.73 g/m*3 18.3 C 0 km/h
757 09-06-2004 07:19:01 18.5 C 11.71 g/m*3 18.5 C 0 km/h
758 09-06-2004 07:31:01 18.9 C 12.15 g/m*3 18.9 C 0 km/h
759 09-06-2004 07:43:01 19.2 C 12.2 g/m*3 19.2 C 0 km/h
760 09-06-2004 07:55:01 19.5 C 12.25 g/m*3 19.5 C 0 km/h
761 09-06-2004 08:07:01 19.8 C 12.3 g/m*3 19.8 C 0 km/h
762 09-06-2004 08:19:01 20.3 C 12.49 g/m*3 20.3 C 0 km/h
763 09-06-2004 08:31:01 20.6 C 12.35 g/m*3 20.6 C 0 km/h
764 09-06-2004 08:43:01 21.1 C 12.34 g/m*3 21.1 C 0 km/h
765 09-06-2004 08:55:01 21.6 C 12.71 g/m*3 21.6 C 0 km/h
766 09-06-2004 09:07:01 22.1 C 12.69 g/m*3 22.1 C 0 km/h
767 09-06-2004 09:19:01 22.6 C 13.26 g/m*3 22.6 C 0 km/h
768 09-06-2004 09:31:00 23.3 C 12.55 g/m*3 23.3 C 0 km/h
769 09-06-2004 09:43:00 24.1 C 12.69 g/m*3 24.1 C 0 km/h
770 09-06-2004 09:55:01 24.6 C 12.83 g/m*3 24.6 C 0 km/h
771 09-06-2004 10:07:01 25.1 C 12.96 g/m*3 25.1 C 0 km/h
772 09-06-2004 10:19:01 25.4 C 13.18 g/m*3 25.4 C 0 km/h
773 09-06-2004 10:31:01 26 C 12.66 g/m*3 26 C 0 km/h
774 09-06-2004 10:43:01 26.6 C 12.84 g/m*3 26.6 C 0 km/h
775 09-06-2004 10:55:01 27.6 C 13.57 g/m*3 27.6 C 0 km/h
Sensor: Nr:Datum:Temp:Abs-Feuchte:Windchill:Wind:
Aussen-T/F 776 09-06-2004 11:07:01 27.9 C 12.98 g/m*3 27.9 C 0 km/h
777 09-06-2004 11:19:01 28.8 C 13.07 g/m*3 28.8 C 0 km/h
778 09-06-2004 11:31:01 29.3 C 13.14 g/m*3 29.3 C 0 km/h
779 09-06-2004 11:43:01 30 C 12.43 g/m*3 30 C 0 km/h
780 09-06-2004 11:55:01 30.3 C 13.87 g/m*3 30.3 C 0 km/h
781 09-06-2004 12:07:01 30.2 C 14.1 g/m*3 30.2 C 0 km/h
782 09-06-2004 12:19:01 30.6 C 13.16 g/m*3 30.6 C 0 km/h
783 09-06-2004 12:31:01 31 C 12.16 g/m*3 31 C 0 km/h
784 09-06-2004 12:43:01 30.7 C 11.65 g/m*3 30.7 C 0 km/h
785 09-06-2004 12:55:01 30.4 C 12.08 g/m*3 30.4 C 0 km/h
786 09-06-2004 13:07:01 30.7 C 11.34 g/m*3 30.7 C 0 km/h
787 09-06-2004 13:19:01 31.3 C 10.73 g/m*3 31.3 C 0 km/h
788 09-06-2004 13:31:01 31.3 C 10.73 g/m*3 31.3 C 0 km/h
789 09-06-2004 13:43:01 32 C 11.14 g/m*3 32 C 0 km/h
790 09-06-2004 13:55:01 31.7 C 10.63 g/m*3 31.7 C 0 km/h
791 09-06-2004 14:07:01 31.6 C 10.91 g/m*3 31.6 C 0 km/h
792 09-06-2004 14:19:01 31.5 C 10.19 g/m*3 31.5 C 0 km/h
793 09-06-2004 14:31:01 31.8 C 10.69 g/m*3 31.8 C 0 km/h
794 09-06-2004 14:43:01 31.2 C 11 g/m*3 31.2 C 0 km/h
795 09-06-2004 14:55:01 31.1 C 10.62 g/m*3 31.1 C 0 km/h
796 09-06-2004 15:07:02 31.8 C 10.35 g/m*3 31.8 C 0 km/h
797 09-06-2004 15:19:01 31.9 C 9.4 g/m*3 31.9 C 0 km/h
798 09-06-2004 15:31:01 31.4 C 9.81 g/m*3 31.4 C 0 km/h
799 09-06-2004 15:43:01 30.6 C 10.65 g/m*3 30.6 C 0 km/h
800 09-06-2004 15:55:02 28.9 C 16.28 g/m*3 28.9 C 0 km/h
Sensor: Nr:Datum:Temp:Abs-Feuchte:Windchill:Wind:
Aussen-T/F 801 09-06-2004 16:07:02 28.8 C 16.19 g/m*3 28.8 C 0 km/h
802 09-06-2004 16:19:02 29.6 C 12.76 g/m*3 29.6 C 0 km/h
803 09-06-2004 16:31:02 29.5 C 15.35 g/m*3 29.5 C 0 km/h
804 09-06-2004 16:43:02 26.6 C 11.33 g/m*3 26.6 C 0 km/h
805 09-06-2004 16:55:02 27.7 C 12.3 g/m*3 27.7 C 0 km/h
806 09-06-2004 17:07:02 30.6 C 11.59 g/m*3 30.6 C 0 km/h
807 09-06-2004 17:19:02 31.3 C 11.06 g/m*3 31.3 C 0 km/h
808 09-06-2004 17:31:02 31.7 C 10.63 g/m*3 31.7 C 0 km/h
809 09-06-2004 17:43:02 31.6 C 11.24 g/m*3 31.6 C 0 km/h
810 09-06-2004 17:55:01 31.4 C 12.75 g/m*3 31.4 C 0 km/h
811 09-06-2004 18:07:01 31.5 C 13.15 g/m*3 31.5 C 0 km/h
812 09-06-2004 18:19:01 31 C 13.44 g/m*3 31 C 0 km/h
813 09-06-2004 18:31:01 30.4 C 13.32 g/m*3 30.4 C 0 km/h
814 09-06-2004 18:43:01 29 C 13.21 g/m*3 29 C 0 km/h
815 09-06-2004 18:55:01 28.8 C 13.92 g/m*3 28.8 C 0 km/h
816 09-06-2004 19:07:01 28.7 C 13.85 g/m*3 28.7 C 0 km/h
817 09-06-2004 19:19:01 28.2 C 13.75 g/m*3 28.2 C 0 km/h
818 09-06-2004 19:31:01 28.4 C 13.9 g/m*3 28.4 C 0 km/h
819 09-06-2004 19:43:01 28 C 13.6 g/m*3 28 C 0 km/h
820 09-06-2004 19:55:01 28.3 C 13.82 g/m*3 28.3 C 0 km/h
821 09-06-2004 20:07:01 27.9 C 14.33 g/m*3 27.9 C 0 km/h
822 09-06-2004 20:19:01 27.2 C 14.57 g/m*3 27.2 C 0 km/h
823 09-06-2004 20:31:01 26.6 C 14.85 g/m*3 26.6 C 0 km/h
824 09-06-2004 20:43:01 25.6 C 14.76 g/m*3 25.6 C 0 km/h
825 09-06-2004 20:55:01 25.2 C 14.43 g/m*3 25.2 C 0 km/h
Sensor: Nr:Datum:Temp:Abs-Feuchte:Windchill:Wind:
Aussen-T/F 826 09-06-2004 21:07:01 24.9 C 14.42 g/m*3 24.9 C 0 km/h
827 09-06-2004 21:19:01 24.8 C 14.34 g/m*3 24.8 C 0 km/h
828 09-06-2004 21:31:01 24.5 C 14.1 g/m*3 24.5 C 0 km/h
829 09-06-2004 21:43:01 24.3 C 14.16 g/m*3 24.3 C 0 km/h
830 09-06-2004 21:55:01 24.1 C 14.22 g/m*3 24.1 C 0 km/h
831 09-06-2004 22:07:01 23.9 C 14.49 g/m*3 23.9 C 0 km/h
832 09-06-2004 22:19:01 23.9 C 14.71 g/m*3 23.9 C 0 km/h
833 09-06-2004 22:31:01 23.6 C 14.68 g/m*3 23.6 C 0 km/h
834 09-06-2004 22:43:01 23.6 C 14.68 g/m*3 23.6 C 0 km/h
835 09-06-2004 22:55:01 23.6 C 14.68 g/m*3 23.6 C 0 km/h
836 09-06-2004 23:07:01 23.3 C 14.64 g/m*3 23.3 C 0 km/h
837 09-06-2004 23:19:01 22.9 C 14.71 g/m*3 22.9 C 0 km/h
838 09-06-2004 23:31:01 22.6 C 14.66 g/m*3 22.6 C 0 km/h
839 09-06-2004 23:43:01 22.4 C 14.7 g/m*3 22.4 C 0 km/h
840 09-06-2004 23:55:01 21.9 C 14.67 g/m*3 21.9 C 0 km/h

Legende:
   Min
   Max


Maximal/Minimal-Werte vom 03.06.2004 - 09.06.2004

Sensor Min Max Avg
Temp
(Aussen-T/F)
8.8 °C
06-06-2004  04:52:01
32.5 °C
08-06-2004  18:06:02
18.64 °C
Abs-Feuchte
(Aussen-T/F)
6.84 g/m*3
07-06-2004  14:05:02
16.28 g/m*3
09-06-2004  15:55:02
9.85 g/m*3
Windchill
(Aussen-T/F)
8.8 C
06-06-2004  04:52:01
32.5 C
08-06-2004  18:06:02
18.61 C

Die Daten stammen von einer Davis Vantage Pro 2 Wetter-Station und werden unter Linux mit der Software wview2wettercgi und aufbereitet. Alle Angaben erfolgen ohne Gewähr für ihre Vollständigkeit oder Richtigkeit.
Kontakt: Rainer Krienke krienke@uni-koblenz.de . Meine Webseiten an der Uni Koblenz oder privat.
Version: $Revision: 0.78 $